sensor_id;sensor_type;location;lat;lon;timestamp;pressure;altitude;pressure_sealevel;temperature;humidity
76808;BME280;65758;45.458;11.062;2023-02-28T00:00:35;101571.77;;;6.80;43.27
76808;BME280;65758;45.458;11.062;2023-02-28T00:03:03;101569.70;;;6.81;43.04
76808;BME280;65758;45.458;11.062;2023-02-28T00:05:30;101568.01;;;6.83;42.97
76808;BME280;65758;45.458;11.062;2023-02-28T00:07:57;101568.09;;;6.85;43.22
76808;BME280;65758;45.458;11.062;2023-02-28T00:10:25;101564.94;;;6.87;42.94
76808;BME280;65758;45.458;11.062;2023-02-28T00:12:55;101570.42;;;6.87;42.83
76808;BME280;65758;45.458;11.062;2023-02-28T00:15:23;101568.83;;;6.83;42.91
76808;BME280;65758;45.458;11.062;2023-02-28T00:17:51;101578.57;;;6.81;43.10
76808;BME280;65758;45.458;11.062;2023-02-28T00:20:18;101587.45;;;6.79;43.18
76808;BME280;65758;45.458;11.062;2023-02-28T00:22:49;101591.42;;;6.81;43.54
76808;BME280;65758;45.458;11.062;2023-02-28T00:25:19;101591.77;;;6.83;43.31
76808;BME280;65758;45.458;11.062;2023-02-28T00:27:47;101594.35;;;6.84;43.16
76808;BME280;65758;45.458;11.062;2023-02-28T00:30:20;101596.05;;;6.85;43.06
76808;BME280;65758;45.458;11.062;2023-02-28T00:32:47;101594.62;;;6.84;43.08
76808;BME280;65758;45.458;11.062;2023-02-28T00:35:13;101599.19;;;6.84;43.09
76808;BME280;65758;45.458;11.062;2023-02-28T00:37:41;101597.64;;;6.83;43.21
76808;BME280;65758;45.458;11.062;2023-02-28T00:40:08;101600.07;;;6.83;43.08
76808;BME280;65758;45.458;11.062;2023-02-28T00:42:36;101599.23;;;6.81;43.09
76808;BME280;65758;45.458;11.062;2023-02-28T00:45:03;101598.36;;;6.79;43.28
76808;BME280;65758;45.458;11.062;2023-02-28T00:47:31;101595.80;;;6.79;43.32
76808;BME280;65758;45.458;11.062;2023-02-28T00:49:59;101597.30;;;6.80;43.21
76808;BME280;65758;45.458;11.062;2023-02-28T00:52:27;101600.30;;;6.80;42.89
76808;BME280;65758;45.458;11.062;2023-02-28T00:54:54;101596.14;;;6.78;43.35
76808;BME280;65758;45.458;11.062;2023-02-28T00:57:21;101596.10;;;6.78;43.49
76808;BME280;65758;45.458;11.062;2023-02-28T00:59:48;101600.04;;;6.79;43.17
76808;BME280;65758;45.458;11.062;2023-02-28T01:02:15;101601.11;;;6.76;43.57
76808;BME280;65758;45.458;11.062;2023-02-28T01:04:42;101604.77;;;6.74;43.62
76808;BME280;65758;45.458;11.062;2023-02-28T01:07:08;101600.15;;;6.71;43.50
76808;BME280;65758;45.458;11.062;2023-02-28T01:09:35;101607.69;;;6.69;43.15
76808;BME280;65758;45.458;11.062;2023-02-28T01:12:03;101613.71;;;6.70;44.35
76808;BME280;65758;45.458;11.062;2023-02-28T01:14:31;101610.23;;;6.72;43.60
76808;BME280;65758;45.458;11.062;2023-02-28T01:16:58;101613.90;;;6.70;43.02
76808;BME280;65758;45.458;11.062;2023-02-28T01:19:26;101617.07;;;6.69;43.84
76808;BME280;65758;45.458;11.062;2023-02-28T01:21:53;101618.84;;;6.70;43.75
76808;BME280;65758;45.458;11.062;2023-02-28T01:24:20;101619.88;;;6.70;43.85
76808;BME280;65758;45.458;11.062;2023-02-28T01:26:46;101619.72;;;6.70;43.95
76808;BME280;65758;45.458;11.062;2023-02-28T01:29:15;101616.77;;;6.69;44.17
76808;BME280;65758;45.458;11.062;2023-02-28T01:31:44;101613.75;;;6.71;44.33
76808;BME280;65758;45.458;11.062;2023-02-28T01:34:11;101609.89;;;6.68;44.06
76808;BME280;65758;45.458;11.062;2023-02-28T01:36:38;101606.95;;;6.66;43.97
76808;BME280;65758;45.458;11.062;2023-02-28T01:39:05;101605.60;;;6.65;44.06
76808;BME280;65758;45.458;11.062;2023-02-28T01:41:34;101608.91;;;6.63;43.74
76808;BME280;65758;45.458;11.062;2023-02-28T01:44:04;101612.05;;;6.57;43.52
76808;BME280;65758;45.458;11.062;2023-02-28T01:46:34;101616.41;;;6.49;43.86
76808;BME280;65758;45.458;11.062;2023-02-28T01:49:16;101614.23;;;6.46;44.34
76808;BME280;65758;45.458;11.062;2023-02-28T01:51:47;101614.31;;;6.47;43.98
76808;BME280;65758;45.458;11.062;2023-02-28T01:54:30;101617.66;;;6.45;44.00
76808;BME280;65758;45.458;11.062;2023-02-28T01:57:02;101618.15;;;6.42;44.23
76808;BME280;65758;45.458;11.062;2023-02-28T01:59:35;101619.88;;;6.41;44.06
76808;BME280;65758;45.458;11.062;2023-02-28T02:02:04;101623.70;;;6.39;44.19
76808;BME280;65758;45.458;11.062;2023-02-28T02:04:40;101621.65;;;6.41;44.26
76808;BME280;65758;45.458;11.062;2023-02-28T02:07:08;101622.94;;;6.43;44.23
76808;BME280;65758;45.458;11.062;2023-02-28T02:09:36;101616.13;;;6.37;44.06
76808;BME280;65758;45.458;11.062;2023-02-28T02:12:37;101612.19;;;6.34;44.11
76808;BME280;65758;45.458;11.062;2023-02-28T02:15:12;101607.69;;;6.29;44.16
76808;BME280;65758;45.458;11.062;2023-02-28T02:17:46;101605.00;;;6.27;44.33
76808;BME280;65758;45.458;11.062;2023-02-28T02:28:41;101593.94;;;6.32;44.51
76808;BME280;65758;45.458;11.062;2023-02-28T02:31:25;101592.73;;;6.30;44.38
76808;BME280;65758;45.458;11.062;2023-02-28T02:36:45;101583.86;;;6.22;44.56
76808;BME280;65758;45.458;11.062;2023-02-28T02:41:54;101587.64;;;6.24;44.53
76808;BME280;65758;45.458;11.062;2023-02-28T02:44:27;101589.02;;;6.24;44.36
76808;BME280;65758;45.458;11.062;2023-02-28T02:47:08;101585.58;;;6.26;45.24
76808;BME280;65758;45.458;11.062;2023-02-28T02:49:38;101590.87;;;6.35;45.22
76808;BME280;65758;45.458;11.062;2023-02-28T02:52:09;101593.15;;;6.43;45.11
76808;BME280;65758;45.458;11.062;2023-02-28T02:54:40;101594.38;;;6.50;44.94
76808;BME280;65758;45.458;11.062;2023-02-28T02:57:18;101595.30;;;6.51;44.45
76808;BME280;65758;45.458;11.062;2023-02-28T02:59:49;101592.27;;;6.45;44.09
76808;BME280;65758;45.458;11.062;2023-02-28T03:02:20;101592.66;;;6.37;44.19
76808;BME280;65758;45.458;11.062;2023-02-28T03:05:01;101591.05;;;6.30;44.41
76808;BME280;65758;45.458;11.062;2023-02-28T03:07:29;101589.42;;;6.30;44.30
76808;BME280;65758;45.458;11.062;2023-02-28T03:09:57;101590.41;;;6.30;44.55
76808;BME280;65758;45.458;11.062;2023-02-28T03:12:40;101591.54;;;6.31;44.42
76808;BME280;65758;45.458;11.062;2023-02-28T03:18:04;101589.85;;;6.33;44.70
76808;BME280;65758;45.458;11.062;2023-02-28T03:20:48;101592.11;;;6.38;44.93
76808;BME280;65758;45.458;11.062;2023-02-28T03:23:53;101585.90;;;6.42;44.46
76808;BME280;65758;45.458;11.062;2023-02-28T03:26:23;101590.27;;;6.43;44.75
76808;BME280;65758;45.458;11.062;2023-02-28T03:31:30;101587.93;;;6.43;44.81
76808;BME280;65758;45.458;11.062;2023-02-28T03:34:04;101587.00;;;6.46;44.65
76808;BME280;65758;45.458;11.062;2023-02-28T03:36:37;101587.58;;;6.49;44.73
76808;BME280;65758;45.458;11.062;2023-02-28T03:39:23;101589.01;;;6.51;44.49
76808;BME280;65758;45.458;11.062;2023-02-28T03:41:58;101590.04;;;6.50;44.72
76808;BME280;65758;45.458;11.062;2023-02-28T03:44:33;101591.69;;;6.51;44.26
76808;BME280;65758;45.458;11.062;2023-02-28T03:47:17;101593.13;;;6.49;44.58
76808;BME280;65758;45.458;11.062;2023-02-28T03:49:53;101593.46;;;6.50;44.49
76808;BME280;65758;45.458;11.062;2023-02-28T03:52:25;101594.61;;;6.49;44.53
76808;BME280;65758;45.458;11.062;2023-02-28T03:54:56;101597.98;;;6.50;44.55
76808;BME280;65758;45.458;11.062;2023-02-28T04:00:40;101597.14;;;6.48;44.59
76808;BME280;65758;45.458;11.062;2023-02-28T04:03:09;101592.34;;;6.47;44.49
76808;BME280;65758;45.458;11.062;2023-02-28T04:05:54;101592.40;;;6.46;44.66
76808;BME280;65758;45.458;11.062;2023-02-28T04:08:21;101597.20;;;6.43;44.61
76808;BME280;65758;45.458;11.062;2023-02-28T04:10:57;101597.38;;;6.38;44.66
76808;BME280;65758;45.458;11.062;2023-02-28T04:13:25;101602.40;;;6.39;44.69
76808;BME280;65758;45.458;11.062;2023-02-28T04:15:52;101612.92;;;6.38;44.68
76808;BME280;65758;45.458;11.062;2023-02-28T04:18:19;101610.23;;;6.34;44.72
76808;BME280;65758;45.458;11.062;2023-02-28T04:20:45;101614.99;;;6.33;44.88
76808;BME280;65758;45.458;11.062;2023-02-28T04:23:12;101612.99;;;6.35;44.96
76808;BME280;65758;45.458;11.062;2023-02-28T04:25:39;101622.83;;;6.38;45.39
76808;BME280;65758;45.458;11.062;2023-02-28T04:28:07;101624.61;;;6.41;45.87
76808;BME280;65758;45.458;11.062;2023-02-28T04:30:33;101629.39;;;6.46;45.31
76808;BME280;65758;45.458;11.062;2023-02-28T04:33:00;101630.41;;;6.50;45.38
76808;BME280;65758;45.458;11.062;2023-02-28T04:35:27;101629.92;;;6.51;45.04
76808;BME280;65758;45.458;11.062;2023-02-28T04:37:53;101633.16;;;6.51;45.02
76808;BME280;65758;45.458;11.062;2023-02-28T04:40:20;101631.70;;;6.53;44.96
76808;BME280;65758;45.458;11.062;2023-02-28T04:42:47;101635.65;;;6.55;45.37
76808;BME280;65758;45.458;11.062;2023-02-28T04:45:13;101636.19;;;6.55;45.45
76808;BME280;65758;45.458;11.062;2023-02-28T04:47:40;101632.29;;;6.54;45.54
76808;BME280;65758;45.458;11.062;2023-02-28T04:50:07;101632.71;;;6.57;45.58
76808;BME280;65758;45.458;11.062;2023-02-28T04:52:35;101635.04;;;6.60;45.71
76808;BME280;65758;45.458;11.062;2023-02-28T04:55:02;101636.34;;;6.58;45.23
76808;BME280;65758;45.458;11.062;2023-02-28T04:57:30;101631.44;;;6.54;45.42
76808;BME280;65758;45.458;11.062;2023-02-28T04:59:57;101634.59;;;6.48;45.69
76808;BME280;65758;45.458;11.062;2023-02-28T05:02:23;101634.80;;;6.47;45.36
76808;BME280;65758;45.458;11.062;2023-02-28T05:04:50;101631.29;;;6.42;45.09
76808;BME280;65758;45.458;11.062;2023-02-28T05:07:17;101638.73;;;6.40;45.61
76808;BME280;65758;45.458;11.062;2023-02-28T05:09:44;101639.54;;;6.39;45.18
76808;BME280;65758;45.458;11.062;2023-02-28T05:12:11;101640.22;;;6.39;45.17
76808;BME280;65758;45.458;11.062;2023-02-28T05:14:38;101638.45;;;6.33;44.67
76808;BME280;65758;45.458;11.062;2023-02-28T05:17:04;101635.65;;;6.27;45.06
76808;BME280;65758;45.458;11.062;2023-02-28T05:19:31;101638.09;;;6.22;45.05
76808;BME280;65758;45.458;11.062;2023-02-28T05:21:58;101639.52;;;6.19;45.06
76808;BME280;65758;45.458;11.062;2023-02-28T05:24:25;101643.11;;;6.13;44.96
76808;BME280;65758;45.458;11.062;2023-02-28T05:26:53;101643.00;;;6.09;45.19
76808;BME280;65758;45.458;11.062;2023-02-28T05:29:21;101642.34;;;6.11;45.82
76808;BME280;65758;45.458;11.062;2023-02-28T05:31:48;101647.62;;;6.18;45.68
76808;BME280;65758;45.458;11.062;2023-02-28T05:34:17;101641.76;;;6.18;45.48
76808;BME280;65758;45.458;11.062;2023-02-28T05:36:43;101637.25;;;6.19;45.48
76808;BME280;65758;45.458;11.062;2023-02-28T05:39:10;101638.39;;;6.20;45.60
76808;BME280;65758;45.458;11.062;2023-02-28T05:41:43;101639.75;;;6.21;45.53
76808;BME280;65758;45.458;11.062;2023-02-28T05:44:10;101641.70;;;6.25;45.31
76808;BME280;65758;45.458;11.062;2023-02-28T05:46:37;101644.13;;;6.24;45.24
76808;BME280;65758;45.458;11.062;2023-02-28T05:49:05;101647.39;;;6.24;45.58
76808;BME280;65758;45.458;11.062;2023-02-28T05:51:31;101644.89;;;6.27;45.85
76808;BME280;65758;45.458;11.062;2023-02-28T05:53:59;101646.23;;;6.34;46.44
76808;BME280;65758;45.458;11.062;2023-02-28T05:56:27;101645.88;;;6.40;47.17
76808;BME280;65758;45.458;11.062;2023-02-28T05:58:53;101646.48;;;6.46;46.34
76808;BME280;65758;45.458;11.062;2023-02-28T06:01:22;101646.77;;;6.46;46.01
76808;BME280;65758;45.458;11.062;2023-02-28T06:03:49;101646.01;;;6.42;45.34
76808;BME280;65758;45.458;11.062;2023-02-28T06:06:17;101650.06;;;6.32;44.84
76808;BME280;65758;45.458;11.062;2023-02-28T06:08:43;101648.40;;;6.23;44.98
76808;BME280;65758;45.458;11.062;2023-02-28T06:11:11;101656.39;;;6.22;45.40
76808;BME280;65758;45.458;11.062;2023-02-28T06:13:38;101656.61;;;6.18;45.49
76808;BME280;65758;45.458;11.062;2023-02-28T06:16:05;101662.85;;;6.16;45.47
76808;BME280;65758;45.458;11.062;2023-02-28T06:18:32;101659.68;;;6.15;45.96
76808;BME280;65758;45.458;11.062;2023-02-28T06:20:58;101666.19;;;6.20;45.76
76808;BME280;65758;45.458;11.062;2023-02-28T06:23:25;101669.60;;;6.22;45.75
76808;BME280;65758;45.458;11.062;2023-02-28T06:25:52;101673.92;;;6.24;45.52
76808;BME280;65758;45.458;11.062;2023-02-28T06:28:19;101669.01;;;6.27;45.76
76808;BME280;65758;45.458;11.062;2023-02-28T06:30:46;101668.86;;;6.31;45.67
76808;BME280;65758;45.458;11.062;2023-02-28T06:33:13;101674.00;;;6.35;45.65
76808;BME280;65758;45.458;11.062;2023-02-28T06:35:42;101672.02;;;6.38;45.37
76808;BME280;65758;45.458;11.062;2023-02-28T06:38:09;101678.83;;;6.36;45.14
76808;BME280;65758;45.458;11.062;2023-02-28T06:40:37;101677.73;;;6.38;45.35
76808;BME280;65758;45.458;11.062;2023-02-28T06:43:04;101681.20;;;6.39;45.28
76808;BME280;65758;45.458;11.062;2023-02-28T06:45:31;101679.85;;;6.43;45.35
76808;BME280;65758;45.458;11.062;2023-02-28T06:47:57;101679.14;;;6.47;45.42
76808;BME280;65758;45.458;11.062;2023-02-28T06:50:24;101683.10;;;6.46;45.42
76808;BME280;65758;45.458;11.062;2023-02-28T06:52:51;101681.79;;;6.49;45.04
76808;BME280;65758;45.458;11.062;2023-02-28T06:55:20;101689.13;;;6.52;45.27
76808;BME280;65758;45.458;11.062;2023-02-28T06:57:47;101690.51;;;6.54;45.19
76808;BME280;65758;45.458;11.062;2023-02-28T07:00:14;101688.46;;;6.59;45.21
76808;BME280;65758;45.458;11.062;2023-02-28T07:02:41;101688.02;;;6.61;45.06
76808;BME280;65758;45.458;11.062;2023-02-28T07:05:08;101685.87;;;6.62;44.63
76808;BME280;65758;45.458;11.062;2023-02-28T07:07:35;101686.36;;;6.67;45.15
76808;BME280;65758;45.458;11.062;2023-02-28T07:10:05;101686.05;;;6.75;44.99
76808;BME280;65758;45.458;11.062;2023-02-28T07:12:32;101686.34;;;6.82;45.10
76808;BME280;65758;45.458;11.062;2023-02-28T07:14:59;101688.50;;;6.90;44.43
76808;BME280;65758;45.458;11.062;2023-02-28T07:17:25;101689.27;;;6.98;45.32
76808;BME280;65758;45.458;11.062;2023-02-28T07:19:52;101684.45;;;7.10;45.03
76808;BME280;65758;45.458;11.062;2023-02-28T07:22:19;101685.34;;;7.24;45.27
76808;BME280;65758;45.458;11.062;2023-02-28T07:24:45;101686.15;;;7.36;44.61
76808;BME280;65758;45.458;11.062;2023-02-28T07:27:12;101686.67;;;7.44;43.92
76808;BME280;65758;45.458;11.062;2023-02-28T07:29:50;101687.85;;;7.49;43.91
76808;BME280;65758;45.458;11.062;2023-02-28T07:32:17;101684.84;;;7.55;43.89
76808;BME280;65758;45.458;11.062;2023-02-28T07:34:45;101686.89;;;7.62;43.85
76808;BME280;65758;45.458;11.062;2023-02-28T07:37:12;101690.52;;;7.66;43.85
76808;BME280;65758;45.458;11.062;2023-02-28T07:39:39;101691.15;;;7.71;43.50
76808;BME280;65758;45.458;11.062;2023-02-28T07:42:05;101686.51;;;7.80;43.73
76808;BME280;65758;45.458;11.062;2023-02-28T07:44:34;101686.85;;;7.83;43.26
76808;BME280;65758;45.458;11.062;2023-02-28T07:47:00;101682.39;;;7.81;43.47
76808;BME280;65758;45.458;11.062;2023-02-28T07:49:27;101682.70;;;7.78;43.62
76808;BME280;65758;45.458;11.062;2023-02-28T07:51:54;101683.02;;;7.79;43.24
76808;BME280;65758;45.458;11.062;2023-02-28T07:54:20;101685.20;;;7.85;43.74
76808;BME280;65758;45.458;11.062;2023-02-28T07:56:47;101684.85;;;7.92;43.51
76808;BME280;65758;45.458;11.062;2023-02-28T07:59:14;101682.46;;;8.00;43.30
76808;BME280;65758;45.458;11.062;2023-02-28T08:01:40;101688.02;;;8.04;42.98
76808;BME280;65758;45.458;11.062;2023-02-28T08:04:07;101684.35;;;8.09;42.42
76808;BME280;65758;45.458;11.062;2023-02-28T08:06:34;101688.55;;;8.12;42.42
76808;BME280;65758;45.458;11.062;2023-02-28T08:09:02;101687.02;;;8.17;42.15
76808;BME280;65758;45.458;11.062;2023-02-28T08:11:28;101688.46;;;8.23;42.07
76808;BME280;65758;45.458;11.062;2023-02-28T08:13:56;101691.85;;;8.30;41.91
76808;BME280;65758;45.458;11.062;2023-02-28T08:16:22;101690.02;;;8.40;42.24
76808;BME280;65758;45.458;11.062;2023-02-28T08:18:52;101689.71;;;8.48;42.11
76808;BME280;65758;45.458;11.062;2023-02-28T08:21:20;101691.19;;;8.58;41.94
76808;BME280;65758;45.458;11.062;2023-02-28T08:23:48;101689.54;;;8.67;41.63
76808;BME280;65758;45.458;11.062;2023-02-28T08:26:16;101688.02;;;8.73;41.45
76808;BME280;65758;45.458;11.062;2023-02-28T08:28:43;101692.21;;;8.79;41.39
76808;BME280;65758;45.458;11.062;2023-02-28T08:31:13;101697.88;;;8.83;41.18
76808;BME280;65758;45.458;11.062;2023-02-28T08:33:41;101701.15;;;8.86;40.66
76808;BME280;65758;45.458;11.062;2023-02-28T08:36:09;101703.07;;;8.92;40.95
76808;BME280;65758;45.458;11.062;2023-02-28T08:38:37;101698.46;;;9.01;40.86
76808;BME280;65758;45.458;11.062;2023-02-28T08:41:06;101694.27;;;9.09;40.90
76808;BME280;65758;45.458;11.062;2023-02-28T08:43:34;101696.32;;;9.16;40.70
76808;BME280;65758;45.458;11.062;2023-02-28T08:46:01;101695.02;;;9.20;40.72
76808;BME280;65758;45.458;11.062;2023-02-28T08:48:30;101696.52;;;9.21;40.44
76808;BME280;65758;45.458;11.062;2023-02-28T08:51:02;101694.72;;;9.21;40.23
76808;BME280;65758;45.458;11.062;2023-02-28T08:53:35;101696.01;;;9.22;40.26
76808;BME280;65758;45.458;11.062;2023-02-28T08:56:13;101695.09;;;9.32;40.08
76808;BME280;65758;45.458;11.062;2023-02-28T08:58:40;101690.20;;;9.41;39.92
76808;BME280;65758;45.458;11.062;2023-02-28T09:03:36;101694.67;;;9.53;39.29
76808;BME280;65758;45.458;11.062;2023-02-28T09:06:03;101695.75;;;9.56;39.12
76808;BME280;65758;45.458;11.062;2023-02-28T09:08:31;101697.95;;;9.59;39.13
76808;BME280;65758;45.458;11.062;2023-02-28T09:10:58;101700.92;;;9.63;38.93
76808;BME280;65758;45.458;11.062;2023-02-28T09:13:28;101700.65;;;9.65;38.59
76808;BME280;65758;45.458;11.062;2023-02-28T09:16:01;101700.56;;;9.69;38.67
76808;BME280;65758;45.458;11.062;2023-02-28T09:18:29;101700.67;;;9.73;38.50
76808;BME280;65758;45.458;11.062;2023-02-28T09:20:56;101702.90;;;9.77;38.56
76808;BME280;65758;45.458;11.062;2023-02-28T09:23:24;101702.92;;;9.80;38.27
76808;BME280;65758;45.458;11.062;2023-02-28T09:25:53;101701.92;;;9.82;38.36
76808;BME280;65758;45.458;11.062;2023-02-28T09:28:21;101706.05;;;9.85;38.26
76808;BME280;65758;45.458;11.062;2023-02-28T09:30:50;101705.30;;;9.89;38.02
76808;BME280;65758;45.458;11.062;2023-02-28T09:33:18;101706.48;;;9.90;37.73
76808;BME280;65758;45.458;11.062;2023-02-28T09:35:56;101701.80;;;9.94;37.82
76808;BME280;65758;45.458;11.062;2023-02-28T09:38:23;101701.81;;;9.99;37.61
76808;BME280;65758;45.458;11.062;2023-02-28T09:40:53;101696.41;;;10.02;37.72
76808;BME280;65758;45.458;11.062;2023-02-28T09:43:23;101697.02;;;10.06;37.72
76808;BME280;65758;45.458;11.062;2023-02-28T09:46:00;101699.91;;;10.09;37.88
76808;BME280;65758;45.458;11.062;2023-02-28T09:48:35;101702.73;;;10.15;38.07
76808;BME280;65758;45.458;11.062;2023-02-28T09:51:33;101703.81;;;10.23;37.17
76808;BME280;65758;45.458;11.062;2023-02-28T09:54:01;101696.27;;;10.29;37.18
76808;BME280;65758;45.458;11.062;2023-02-28T09:56:40;101693.16;;;10.37;37.25
76808;BME280;65758;45.458;11.062;2023-02-28T09:59:21;101693.41;;;10.44;37.04
76808;BME280;65758;45.458;11.062;2023-02-28T10:01:54;101697.05;;;10.48;37.26
76808;BME280;65758;45.458;11.062;2023-02-28T10:04:47;101696.16;;;10.52;37.19
76808;BME280;65758;45.458;11.062;2023-02-28T10:07:40;101692.55;;;10.57;36.92
76808;BME280;65758;45.458;11.062;2023-02-28T10:12:46;101695.73;;;10.62;36.90
76808;BME280;65758;45.458;11.062;2023-02-28T10:15:15;101698.44;;;10.65;36.80
76808;BME280;65758;45.458;11.062;2023-02-28T10:17:46;101692.27;;;10.69;36.66
76808;BME280;65758;45.458;11.062;2023-02-28T10:20:37;101685.30;;;10.76;36.31
76808;BME280;65758;45.458;11.062;2023-02-28T10:25:57;101686.34;;;10.73;36.67
76808;BME280;65758;45.458;11.062;2023-02-28T10:28:26;101682.77;;;10.75;36.40
76808;BME280;65758;45.458;11.062;2023-02-28T10:30:54;101678.37;;;10.81;36.77
76808;BME280;65758;45.458;11.062;2023-02-28T10:35:56;101677.58;;;10.96;36.59
76808;BME280;65758;45.458;11.062;2023-02-28T10:38:31;101675.07;;;11.02;36.50
76808;BME280;65758;45.458;11.062;2023-02-28T10:41:09;101680.01;;;11.08;36.62
76808;BME280;65758;45.458;11.062;2023-02-28T10:43:38;101679.84;;;11.09;36.34
76808;BME280;65758;45.458;11.062;2023-02-28T10:48:40;101678.84;;;11.14;36.47
76808;BME280;65758;45.458;11.062;2023-02-28T10:51:14;101675.23;;;11.20;36.36
76808;BME280;65758;45.458;11.062;2023-02-28T10:53:54;101669.42;;;11.25;36.52
76808;BME280;65758;45.458;11.062;2023-02-28T10:56:29;101665.00;;;11.31;36.05
76808;BME280;65758;45.458;11.062;2023-02-28T11:01:27;101655.31;;;11.37;36.09
76808;BME280;65758;45.458;11.062;2023-02-28T11:04:01;101654.19;;;11.46;36.39
76808;BME280;65758;45.458;11.062;2023-02-28T11:06:32;101648.06;;;11.54;36.29
76808;BME280;65758;45.458;11.062;2023-02-28T11:09:02;101645.50;;;11.62;36.13
76808;BME280;65758;45.458;11.062;2023-02-28T11:11:42;101640.14;;;11.70;35.82
76808;BME280;65758;45.458;11.062;2023-02-28T11:14:39;101633.45;;;11.78;35.55
76808;BME280;65758;45.458;11.062;2023-02-28T11:17:33;101633.98;;;11.82;35.79
76808;BME280;65758;45.458;11.062;2023-02-28T11:20:04;101627.07;;;11.77;35.89
76808;BME280;65758;45.458;11.062;2023-02-28T11:22:37;101627.96;;;11.78;35.69
76808;BME280;65758;45.458;11.062;2023-02-28T11:25:23;101622.23;;;11.78;35.43
76808;BME280;65758;45.458;11.062;2023-02-28T11:27:53;101624.97;;;11.81;35.26
76808;BME280;65758;45.458;11.062;2023-02-28T11:32:53;101616.16;;;11.73;35.05
76808;BME280;65758;45.458;11.062;2023-02-28T11:35:26;101610.92;;;11.74;35.26
76808;BME280;65758;45.458;11.062;2023-02-28T11:37:55;101608.48;;;11.79;35.51
76808;BME280;65758;45.458;11.062;2023-02-28T11:40:31;101605.86;;;11.80;35.54
76808;BME280;65758;45.458;11.062;2023-02-28T11:43:21;101599.44;;;11.82;35.11
76808;BME280;65758;45.458;11.062;2023-02-28T11:48:33;101588.05;;;11.87;35.39
76808;BME280;65758;45.458;11.062;2023-02-28T11:51:14;101585.95;;;11.94;35.55
76808;BME280;65758;45.458;11.062;2023-02-28T11:56:55;101583.77;;;12.03;35.07
76808;BME280;65758;45.458;11.062;2023-02-28T11:59:48;101572.17;;;12.06;35.06
76808;BME280;65758;45.458;11.062;2023-02-28T12:05:17;101570.48;;;12.13;34.72
76808;BME280;65758;45.458;11.062;2023-02-28T12:07:55;101568.58;;;12.07;35.05
76808;BME280;65758;45.458;11.062;2023-02-28T12:10:29;101558.41;;;12.02;34.80
76808;BME280;65758;45.458;11.062;2023-02-28T12:13:18;101557.33;;;11.99;35.05
76808;BME280;65758;45.458;11.062;2023-02-28T12:18:31;101557.95;;;11.90;35.48
76808;BME280;65758;45.458;11.062;2023-02-28T12:23:53;101552.17;;;11.86;35.23
76808;BME280;65758;45.458;11.062;2023-02-28T12:26:42;101548.86;;;11.83;35.02
76808;BME280;65758;45.458;11.062;2023-02-28T12:29:23;101538.69;;;11.83;35.45
76808;BME280;65758;45.458;11.062;2023-02-28T12:31:52;101530.91;;;11.89;35.76
76808;BME280;65758;45.458;11.062;2023-02-28T12:34:26;101519.52;;;11.98;36.15
76808;BME280;65758;45.458;11.062;2023-02-28T12:36:55;101525.05;;;12.08;35.89
76808;BME280;65758;45.458;11.062;2023-02-28T12:39:26;101518.06;;;12.14;35.92
76808;BME280;65758;45.458;11.062;2023-02-28T12:42:01;101520.16;;;12.17;35.54
76808;BME280;65758;45.458;11.062;2023-02-28T12:44:30;101522.76;;;12.10;35.54
76808;BME280;65758;45.458;11.062;2023-02-28T12:47:03;101519.83;;;12.07;35.64
76808;BME280;65758;45.458;11.062;2023-02-28T12:49:46;101511.64;;;12.06;35.79
76808;BME280;65758;45.458;11.062;2023-02-28T12:52:22;101512.05;;;12.07;35.90
76808;BME280;65758;45.458;11.062;2023-02-28T12:55:23;101510.80;;;12.07;35.91
76808;BME280;65758;45.458;11.062;2023-02-28T13:00:28;101498.41;;;12.02;36.38
76808;BME280;65758;45.458;11.062;2023-02-28T13:10:57;101485.96;;;12.03;36.60
76808;BME280;65758;45.458;11.062;2023-02-28T13:13:28;101482.45;;;12.03;36.41
76808;BME280;65758;45.458;11.062;2023-02-28T13:16:07;101484.58;;;12.08;36.69
76808;BME280;65758;45.458;11.062;2023-02-28T13:18:38;101481.02;;;12.12;36.31
76808;BME280;65758;45.458;11.062;2023-02-28T13:21:10;101481.96;;;12.14;36.32
76808;BME280;65758;45.458;11.062;2023-02-28T13:31:26;101468.45;;;12.24;36.33
76808;BME280;65758;45.458;11.062;2023-02-28T13:36:30;101470.12;;;12.29;36.64
76808;BME280;65758;45.458;11.062;2023-02-28T13:39:03;101468.14;;;12.29;36.62
76808;BME280;65758;45.458;11.062;2023-02-28T13:41:49;101471.05;;;12.34;36.89
76808;BME280;65758;45.458;11.062;2023-02-28T13:44:19;101470.91;;;12.36;36.75
76808;BME280;65758;45.458;11.062;2023-02-28T13:49:25;101465.46;;;12.43;36.83
76808;BME280;65758;45.458;11.062;2023-02-28T14:06:31;101450.27;;;12.47;37.09
76808;BME280;65758;45.458;11.062;2023-02-28T14:09:03;101445.30;;;12.45;36.65
76808;BME280;65758;45.458;11.062;2023-02-28T14:11:37;101445.03;;;12.43;36.61
76808;BME280;65758;45.458;11.062;2023-02-28T14:14:07;101444.88;;;12.40;36.71
76808;BME280;65758;45.458;11.062;2023-02-28T14:16:45;101442.96;;;12.36;36.72
76808;BME280;65758;45.458;11.062;2023-02-28T14:19:21;101440.30;;;12.35;37.24
76808;BME280;65758;45.458;11.062;2023-02-28T14:22:13;101440.44;;;12.37;36.88
76808;BME280;65758;45.458;11.062;2023-02-28T14:33:23;101433.75;;;12.16;37.43
76808;BME280;65758;45.458;11.062;2023-02-28T14:38:45;101425.77;;;12.17;37.92
76808;BME280;65758;45.458;11.062;2023-02-28T14:41:17;101425.56;;;12.17;37.68
76808;BME280;65758;45.458;11.062;2023-02-28T14:43:52;101418.15;;;12.14;37.61
76808;BME280;65758;45.458;11.062;2023-02-28T14:46:19;101413.88;;;12.14;38.14
76808;BME280;65758;45.458;11.062;2023-02-28T14:48:49;101413.07;;;12.16;37.93
76808;BME280;65758;45.458;11.062;2023-02-28T14:51:22;101409.98;;;12.17;38.18